createdAt,value
2019-01-25T00:00:05.533Z,15.20
2019-01-25T00:02:34.931Z,14.67
2019-01-25T00:05:05.502Z,13.60
2019-01-25T00:07:34.842Z,15.20
2019-01-25T00:10:04.940Z,12.73
2019-01-25T00:12:34.283Z,13.07
2019-01-25T00:15:03.994Z,15.30
2019-01-25T00:17:33.683Z,16.20
2019-01-25T00:20:03.063Z,15.43
2019-01-25T00:22:32.354Z,14.50
2019-01-25T00:25:02.429Z,15.40
2019-01-25T00:27:31.785Z,15.00
2019-01-25T00:30:20.219Z,15.03
2019-01-25T00:32:49.917Z,15.10
2019-01-25T00:35:19.423Z,13.87
2019-01-25T00:37:48.765Z,14.53
2019-01-25T00:40:18.062Z,13.37
2019-01-25T00:42:48.026Z,14.77
2019-01-25T00:45:17.671Z,14.87
2019-01-25T00:48:06.810Z,15.47
2019-01-25T00:50:36.247Z,15.13
2019-01-25T00:53:25.153Z,13.93
2019-01-25T00:55:54.710Z,14.90
2019-01-25T00:58:43.546Z,15.70
2019-01-25T01:01:13.191Z,14.90
2019-01-25T01:03:42.491Z,14.70
2019-01-25T01:06:12.075Z,15.10
2019-01-25T01:08:41.841Z,13.77
2019-01-25T01:11:11.953Z,13.73
2019-01-25T01:13:41.401Z,14.13
2019-01-25T01:16:22.892Z,14.70
2019-01-25T01:18:52.625Z,14.30
2019-01-25T01:21:22.062Z,13.47
2019-01-25T01:23:51.371Z,13.40
2019-01-25T01:26:20.566Z,14.27
2019-01-25T01:28:50.191Z,14.40
2019-01-25T01:31:19.854Z,14.90
2019-01-25T01:33:49.144Z,14.80
2019-01-25T01:36:18.445Z,13.80
2019-01-25T01:38:47.822Z,13.03
2019-01-25T01:41:17.484Z,13.47
2019-01-25T01:43:46.780Z,14.97
2019-01-25T01:46:16.357Z,15.70
2019-01-25T01:48:45.959Z,13.40
2019-01-25T01:51:15.291Z,13.77
2019-01-25T01:53:44.489Z,14.57
2019-01-25T01:56:13.752Z,14.90
2019-01-25T01:58:43.373Z,14.33
2019-01-25T02:01:12.638Z,14.50
2019-01-25T02:03:42.072Z,14.47
2019-01-25T02:06:30.775Z,13.50
2019-01-25T02:09:00.227Z,13.73
2019-01-25T02:11:29.502Z,15.00
2019-01-25T02:13:59.158Z,12.87
2019-01-25T02:16:28.430Z,15.23
2019-01-25T02:18:57.890Z,15.63
2019-01-25T02:21:27.271Z,13.90
2019-01-25T02:23:56.696Z,13.77
2019-01-25T02:26:25.962Z,13.97
2019-01-25T02:28:55.674Z,15.33
2019-01-25T02:31:25.294Z,15.47
2019-01-25T02:33:54.691Z,15.20
2019-01-25T02:36:24.320Z,14.03
2019-01-25T02:38:53.977Z,14.23
2019-01-25T02:41:23.416Z,15.00
2019-01-25T02:43:53.024Z,14.87
2019-01-25T02:46:22.718Z,13.87
2019-01-25T02:48:52.803Z,14.00
2019-01-25T02:51:41.258Z,15.30
2019-01-25T02:54:10.642Z,13.70
2019-01-25T02:56:43.034Z,15.07
2019-01-25T02:59:12.304Z,14.37
2019-01-25T03:01:41.992Z,14.93
2019-01-25T03:04:11.653Z,14.67
2019-01-25T03:06:41.203Z,15.10
2019-01-25T03:09:11.092Z,15.30
2019-01-25T03:11:40.747Z,14.57
2019-01-25T03:14:10.154Z,15.00
2019-01-25T03:16:39.879Z,14.77
2019-01-25T03:19:20.830Z,16.57
2019-01-25T03:21:50.412Z,13.90
2019-01-25T03:24:19.683Z,14.70
2019-01-25T03:26:49.142Z,13.60
2019-01-25T03:29:19.261Z,14.00
2019-01-25T03:31:48.928Z,15.30
2019-01-25T03:34:18.180Z,14.50
2019-01-25T03:36:47.405Z,14.47
2019-01-25T03:39:16.677Z,14.37
2019-01-25T03:41:46.005Z,14.20
2019-01-25T03:44:15.263Z,14.80
2019-01-25T03:46:44.949Z,15.97
2019-01-25T03:49:14.375Z,13.90
2019-01-25T03:51:43.578Z,14.10
2019-01-25T03:54:13.223Z,14.93
2019-01-25T03:56:42.664Z,12.70
2019-01-25T03:59:11.971Z,14.23
2019-01-25T04:01:41.236Z,14.67
2019-01-25T04:04:10.624Z,15.40
2019-01-25T04:06:40.257Z,14.23
2019-01-25T04:09:10.728Z,15.53
2019-01-25T04:11:40.314Z,14.60
2019-01-25T04:14:09.957Z,14.13
2019-01-25T04:16:39.218Z,14.97
2019-01-25T04:19:08.868Z,13.20
2019-01-25T04:21:38.122Z,15.23
2019-01-25T04:24:07.429Z,14.73
2019-01-25T04:26:37.155Z,13.37
2019-01-25T04:29:06.835Z,16.67
2019-01-25T04:31:36.472Z,14.40
2019-01-25T04:34:06.151Z,15.07
2019-01-25T04:36:35.353Z,15.90
2019-01-25T04:39:08.418Z,13.77
2019-01-25T04:41:38.087Z,13.13
2019-01-25T04:44:07.866Z,15.10
2019-01-25T04:46:37.468Z,15.20
2019-01-25T04:49:06.730Z,14.90
2019-01-25T04:51:36.607Z,14.73
2019-01-25T04:54:05.889Z,14.63
2019-01-25T04:56:38.535Z,14.43
2019-01-25T04:59:08.221Z,14.30
2019-01-25T05:01:37.847Z,14.80
2019-01-25T05:04:07.458Z,13.90
2019-01-25T05:06:37.110Z,14.20
2019-01-25T05:09:09.075Z,14.00
2019-01-25T05:11:38.359Z,13.97
2019-01-25T05:14:08.081Z,14.77
2019-01-25T05:16:57.204Z,13.80
2019-01-25T05:19:26.476Z,14.53
2019-01-25T05:21:56.067Z,15.07
2019-01-25T05:24:25.737Z,15.60
2019-01-25T05:26:58.597Z,14.70
2019-01-25T05:29:51.828Z,13.40
2019-01-25T05:32:21.457Z,14.50
2019-01-25T05:34:51.366Z,13.97
2019-01-25T05:37:21.056Z,14.33
2019-01-25T05:39:50.250Z,14.97
2019-01-25T05:42:19.900Z,13.10
2019-01-25T05:44:49.634Z,13.50
2019-01-25T05:47:18.890Z,14.77
2019-01-25T05:49:49.186Z,14.63
2019-01-25T05:52:20.414Z,13.33
2019-01-25T05:54:49.665Z,14.10
2019-01-25T05:57:19.434Z,13.10
2019-01-25T05:59:49.466Z,14.80
2019-01-25T06:02:18.811Z,14.17
2019-01-25T06:04:48.405Z,13.63
2019-01-25T06:07:18.062Z,13.80
2019-01-25T06:09:47.336Z,14.10
2019-01-25T06:12:16.587Z,14.43
2019-01-25T06:14:46.216Z,15.87
2019-01-25T06:17:15.911Z,15.00
2019-01-25T06:19:45.160Z,15.13
2019-01-25T06:22:14.549Z,15.50
2019-01-25T06:24:47.934Z,13.70
2019-01-25T06:27:17.161Z,14.13
2019-01-25T06:29:49.503Z,14.23
2019-01-25T06:32:18.760Z,14.80
2019-01-25T06:34:48.319Z,15.93
2019-01-25T06:37:17.943Z,15.17
2019-01-25T06:39:47.962Z,13.70
2019-01-25T06:42:17.236Z,15.03
2019-01-25T06:44:46.742Z,14.80
2019-01-25T06:47:16.659Z,16.53
2019-01-25T06:49:46.422Z,16.00
2019-01-25T06:52:16.881Z,14.60
2019-01-25T06:54:46.378Z,15.10
2019-01-25T06:57:37.331Z,15.37
2019-01-25T07:00:08.948Z,14.83
2019-01-25T07:02:40.306Z,15.23
2019-01-25T07:05:12.849Z,15.57
2019-01-25T07:07:44.023Z,15.10
2019-01-25T07:10:15.955Z,14.90
2019-01-25T07:12:45.330Z,14.60
2019-01-25T07:15:16.762Z,17.20
2019-01-25T07:17:46.538Z,15.47
2019-01-25T07:20:15.937Z,15.43
2019-01-25T07:22:45.501Z,15.37
2019-01-25T07:25:14.907Z,15.00
2019-01-25T07:27:44.158Z,15.30
2019-01-25T07:30:32.712Z,16.17
2019-01-25T07:33:02.519Z,15.87
2019-01-25T07:35:50.964Z,15.67
2019-01-25T07:38:20.551Z,14.13
2019-01-25T07:40:49.857Z,15.13
2019-01-25T07:43:19.869Z,16.70
2019-01-25T07:45:49.268Z,16.93
2019-01-25T07:48:18.921Z,16.17
2019-01-25T07:50:48.290Z,15.93
2019-01-25T07:53:18.245Z,14.97
2019-01-25T07:55:47.915Z,15.83
2019-01-25T07:58:17.377Z,14.60
2019-01-25T08:00:47.452Z,14.47
2019-01-25T08:03:17.089Z,15.13
2019-01-25T08:05:46.656Z,15.33
2019-01-25T08:08:15.916Z,15.30
2019-01-25T08:10:45.170Z,16.80
2019-01-25T08:13:14.569Z,16.40
2019-01-25T08:15:43.795Z,15.80
2019-01-25T08:18:13.079Z,15.67
2019-01-25T08:20:42.724Z,16.47
2019-01-25T08:23:12.074Z,16.97
2019-01-25T08:25:41.458Z,15.97
2019-01-25T08:28:11.183Z,15.87
2019-01-25T08:30:40.915Z,15.13
2019-01-25T08:33:10.629Z,16.10
2019-01-25T08:35:40.713Z,14.53
2019-01-25T08:38:15.984Z,15.30
2019-01-25T08:40:45.669Z,17.43
2019-01-25T08:43:16.086Z,16.73
2019-01-25T08:45:45.472Z,15.57
2019-01-25T08:48:14.729Z,16.40
2019-01-25T08:50:44.411Z,15.30
2019-01-25T08:53:14.140Z,16.47
2019-01-25T08:55:43.831Z,17.23
2019-01-25T08:58:13.468Z,16.90
2019-01-25T09:00:42.758Z,17.90
2019-01-25T09:03:11.982Z,15.77
2019-01-25T09:05:41.643Z,16.83
2019-01-25T09:08:10.955Z,17.47
2019-01-25T09:10:40.174Z,18.63
2019-01-25T09:13:09.742Z,17.23
2019-01-25T09:15:39.161Z,15.83
2019-01-25T09:18:08.781Z,15.70
2019-01-25T09:20:38.437Z,16.63
2019-01-25T09:23:07.702Z,17.77
2019-01-25T09:25:37.459Z,16.50
2019-01-25T09:28:07.101Z,17.13
2019-01-25T09:30:36.326Z,17.37
2019-01-25T09:33:05.546Z,15.40
2019-01-25T09:35:35.379Z,15.60
2019-01-25T09:38:05.049Z,15.87
2019-01-25T09:40:34.277Z,16.90
2019-01-25T09:43:03.515Z,17.17
2019-01-25T09:45:33.197Z,16.53
2019-01-25T09:48:02.478Z,18.23
2019-01-25T09:50:31.758Z,16.17
2019-01-25T09:53:20.321Z,16.60
2019-01-25T09:55:49.733Z,17.57
2019-01-25T09:58:19.917Z,15.50
2019-01-25T10:01:05.006Z,17.37
2019-01-25T10:03:34.994Z,17.17
2019-01-25T10:06:04.580Z,19.60
2019-01-25T10:08:34.394Z,17.30
2019-01-25T10:11:03.626Z,17.50
2019-01-25T10:13:33.605Z,19.43
2019-01-25T10:16:03.465Z,19.20
2019-01-25T10:18:32.709Z,19.30
2019-01-25T10:21:02.304Z,17.80
2019-01-25T10:23:31.515Z,17.67
2019-01-25T10:26:00.809Z,19.40
2019-01-25T10:28:30.491Z,18.00
2019-01-25T10:30:59.870Z,19.07
2019-01-25T10:33:29.505Z,16.67
2019-01-25T10:35:59.146Z,20.17
2019-01-25T10:38:28.722Z,18.50
2019-01-25T10:40:58.474Z,18.87
2019-01-25T10:43:27.734Z,17.30
2019-01-25T10:45:57.127Z,17.87
2019-01-25T10:48:26.505Z,19.07
2019-01-25T10:50:55.911Z,18.77
2019-01-25T10:53:26.400Z,18.17
2019-01-25T10:55:56.136Z,20.10
2019-01-25T10:58:25.771Z,19.80
2019-01-25T11:00:55.948Z,19.30
2019-01-25T11:03:25.203Z,20.20
2019-01-25T11:05:54.457Z,19.20
2019-01-25T11:08:23.871Z,19.83
2019-01-25T11:10:53.091Z,20.47
2019-01-25T11:13:22.515Z,18.13
2019-01-25T11:15:52.622Z,20.20
2019-01-25T11:18:22.526Z,18.17
2019-01-25T11:20:52.179Z,19.23
2019-01-25T11:23:21.810Z,18.87
2019-01-25T11:25:51.025Z,20.20
2019-01-25T11:28:20.467Z,18.90
2019-01-25T11:30:50.197Z,18.70
2019-01-25T11:33:19.558Z,22.40
2019-01-25T11:35:49.158Z,19.27
2019-01-25T11:38:18.440Z,20.60
2019-01-25T11:40:48.014Z,21.67
2019-01-25T11:43:17.674Z,18.87
2019-01-25T11:45:46.932Z,19.97
2019-01-25T11:48:16.162Z,19.47
2019-01-25T11:50:45.957Z,21.80
2019-01-25T11:53:15.603Z,22.23
2019-01-25T11:55:45.283Z,21.67
2019-01-25T11:58:14.693Z,22.30
2019-01-25T12:00:45.758Z,23.70
2019-01-25T12:03:15.158Z,21.50
2019-01-25T12:05:44.383Z,22.23
2019-01-25T12:08:13.642Z,23.80
2019-01-25T12:10:43.391Z,25.10
2019-01-25T12:13:16.237Z,23.70
2019-01-25T12:15:55.867Z,25.80
2019-01-25T12:18:25.358Z,23.00
2019-01-25T12:20:55.083Z,24.70
2019-01-25T12:23:24.670Z,24.63
2019-01-25T12:25:54.029Z,25.73
2019-01-25T12:28:23.836Z,24.70
2019-01-25T12:30:53.788Z,25.37
2019-01-25T12:33:23.175Z,23.60
2019-01-25T12:35:52.630Z,24.57
2019-01-25T12:38:21.921Z,25.67
2019-01-25T12:40:51.533Z,22.97
2019-01-25T12:43:24.211Z,24.10
2019-01-25T12:45:52.562Z,23.23
2019-01-25T12:48:22.181Z,17.27
2019-01-25T12:50:59.045Z,16.13
2019-01-25T12:53:28.897Z,17.73
2019-01-25T12:55:58.562Z,19.03
2019-01-25T12:58:46.960Z,16.17
2019-01-25T13:01:16.235Z,20.40
2019-01-25T13:03:45.843Z,19.80
2019-01-25T13:06:15.702Z,19.43
2019-01-25T13:08:45.353Z,19.67
2019-01-25T13:11:14.598Z,19.00
2019-01-25T13:14:03.008Z,20.07
2019-01-25T13:16:32.967Z,19.50
2019-01-25T13:19:02.642Z,17.10
2019-01-25T13:21:32.149Z,19.00
2019-01-25T13:24:02.096Z,20.83
2019-01-25T13:26:31.512Z,17.90
2019-01-25T13:29:01.132Z,21.70
2019-01-25T13:31:30.788Z,21.97
2019-01-25T13:34:00.458Z,21.30
2019-01-25T13:36:30.401Z,22.50
2019-01-25T13:39:00.113Z,18.60
2019-01-25T13:41:48.555Z,19.50
2019-01-25T13:44:17.824Z,21.57
2019-01-25T13:46:47.418Z,19.33
2019-01-25T13:49:17.696Z,20.97
2019-01-25T13:51:46.975Z,22.77
2019-01-25T13:54:16.253Z,23.50
2019-01-25T13:56:45.896Z,21.07
2019-01-25T13:59:15.517Z,20.97
2019-01-25T14:01:45.158Z,19.70
2019-01-25T14:04:15.354Z,20.30
2019-01-25T14:06:44.747Z,18.97
2019-01-25T14:09:14.322Z,20.10
2019-01-25T14:11:45.376Z,19.47
2019-01-25T14:14:14.628Z,19.90
2019-01-25T14:16:43.857Z,20.30
2019-01-25T14:19:13.221Z,17.50
2019-01-25T14:21:43.383Z,18.43
2019-01-25T14:24:16.637Z,16.37
2019-01-25T14:26:44.063Z,17.50
2019-01-25T14:29:13.358Z,16.47
2019-01-25T14:32:01.802Z,18.90
2019-01-25T14:34:31.472Z,14.60
2019-01-25T14:37:01.119Z,17.70
2019-01-25T14:39:30.707Z,16.33
2019-01-25T14:42:00.532Z,16.37
2019-01-25T14:44:30.166Z,18.30
2019-01-25T14:47:00.377Z,18.70
2019-01-25T14:49:30.407Z,17.37
2019-01-25T14:51:59.730Z,18.27
2019-01-25T14:54:29.303Z,17.40
2019-01-25T14:56:58.549Z,15.90
2019-01-25T14:59:28.127Z,17.70
2019-01-25T15:01:57.534Z,18.07
2019-01-25T15:04:27.476Z,17.17
2019-01-25T15:06:56.798Z,17.17
2019-01-25T15:09:26.073Z,17.90
2019-01-25T15:11:55.761Z,15.97
2019-01-25T15:14:25.063Z,20.33
2019-01-25T15:16:54.283Z,17.40
2019-01-25T15:19:23.760Z,18.03
2019-01-25T15:21:53.678Z,19.10
2019-01-25T15:24:24.084Z,19.10
2019-01-25T15:26:53.320Z,19.30
2019-01-25T15:29:23.664Z,16.90
2019-01-25T15:31:52.958Z,17.30
2019-01-25T15:34:22.532Z,17.00
2019-01-25T15:36:52.954Z,18.67
2019-01-25T15:39:22.666Z,19.20
2019-01-25T15:41:52.245Z,15.07
2019-01-25T15:44:24.607Z,17.83
2019-01-25T15:46:54.228Z,16.00
2019-01-25T15:49:23.893Z,19.07
2019-01-25T15:52:12.885Z,19.00
2019-01-25T15:54:42.482Z,15.60
2019-01-25T15:57:11.857Z,16.60
2019-01-25T15:59:41.969Z,18.00
2019-01-25T16:02:11.566Z,16.37
2019-01-25T16:04:41.694Z,17.30
2019-01-25T16:07:11.475Z,16.57
2019-01-25T16:09:40.719Z,18.73
2019-01-25T16:12:09.985Z,15.60
2019-01-25T16:14:39.957Z,15.97
2019-01-25T16:17:09.527Z,16.63
2019-01-25T16:19:38.946Z,19.60
2019-01-25T16:22:08.286Z,15.70
2019-01-25T16:24:37.507Z,14.50
2019-01-25T16:27:07.129Z,16.30
2019-01-25T16:29:36.860Z,16.27
2019-01-25T16:32:06.139Z,15.87
2019-01-25T16:34:54.550Z,16.17
2019-01-25T16:37:24.213Z,16.37
2019-01-25T16:39:53.441Z,15.03
2019-01-25T16:42:23.237Z,16.93
2019-01-25T16:44:52.889Z,16.10
2019-01-25T16:47:22.314Z,16.90
2019-01-25T16:49:52.353Z,17.60
2019-01-25T16:52:22.010Z,15.90
2019-01-25T16:54:51.384Z,14.10
2019-01-25T16:57:20.673Z,14.90
2019-01-25T16:59:49.894Z,15.93
2019-01-25T17:02:19.182Z,16.47
2019-01-25T17:04:49.254Z,14.77
2019-01-25T17:07:18.681Z,15.90
2019-01-25T17:10:07.124Z,15.63
2019-01-25T17:12:36.386Z,16.57
2019-01-25T17:15:06.397Z,16.93
2019-01-25T17:17:36.058Z,19.20
2019-01-25T17:20:06.764Z,16.47
2019-01-25T17:22:36.464Z,14.53
2019-01-25T17:25:06.948Z,16.87
2019-01-25T17:27:36.234Z,14.00
2019-01-25T17:30:08.010Z,15.47
2019-01-25T17:32:37.596Z,14.80
2019-01-25T17:35:07.654Z,14.60
2019-01-25T17:37:37.324Z,16.33
2019-01-25T17:40:09.279Z,15.60
2019-01-25T17:42:39.981Z,14.67
2019-01-25T17:45:09.864Z,16.87
2019-01-25T17:47:39.521Z,14.37
2019-01-25T17:50:10.659Z,14.97
2019-01-25T17:52:40.375Z,17.00
2019-01-25T17:55:10.889Z,15.93
2019-01-25T17:57:40.622Z,15.27
2019-01-25T18:00:16.706Z,15.90
2019-01-25T18:02:46.767Z,14.67
2019-01-25T18:05:17.094Z,15.57
2019-01-25T18:07:46.821Z,14.43
2019-01-25T18:10:16.868Z,15.80
2019-01-25T18:12:46.159Z,16.03
2019-01-25T18:15:15.820Z,16.97
2019-01-25T18:17:45.458Z,16.57
2019-01-25T18:20:16.295Z,16.20
2019-01-25T18:22:45.663Z,15.20
2019-01-25T18:25:18.538Z,16.30
2019-01-25T18:27:51.754Z,16.80
2019-01-25T18:30:37.145Z,14.80
2019-01-25T18:33:06.452Z,17.33
2019-01-25T18:35:36.113Z,16.30
2019-01-25T18:38:07.840Z,17.57
2019-01-25T18:40:37.109Z,16.77
2019-01-25T18:43:06.405Z,16.40
2019-01-25T18:45:36.075Z,15.63
2019-01-25T18:48:05.741Z,17.57
2019-01-25T18:50:35.015Z,14.10
2019-01-25T18:53:04.508Z,15.93
2019-01-25T18:55:34.586Z,16.03
2019-01-25T18:58:23.016Z,14.97
2019-01-25T19:00:52.689Z,14.90
2019-01-25T19:03:22.380Z,15.03
2019-01-25T19:05:51.725Z,17.67
2019-01-25T19:08:21.445Z,16.27
2019-01-25T19:10:51.143Z,17.47
2019-01-25T19:13:21.010Z,14.93
2019-01-25T19:15:50.559Z,17.10
2019-01-25T19:18:20.200Z,15.83
2019-01-25T19:20:49.451Z,16.40
2019-01-25T19:23:18.790Z,18.00
2019-01-25T19:25:48.098Z,15.97
2019-01-25T19:28:17.528Z,16.30
2019-01-25T19:30:48.290Z,17.93
2019-01-25T19:33:18.056Z,18.07
2019-01-25T19:35:47.357Z,18.23
2019-01-25T19:38:18.951Z,17.50
2019-01-25T19:40:48.540Z,17.80
2019-01-25T19:43:17.881Z,19.47
2019-01-25T19:45:47.693Z,18.20
2019-01-25T19:48:17.164Z,17.00
2019-01-25T19:51:05.558Z,16.73
2019-01-25T19:53:34.839Z,18.43
2019-01-25T19:56:04.464Z,17.67
2019-01-25T19:58:34.122Z,18.77
2019-01-25T20:01:03.743Z,19.87
2019-01-25T20:03:33.050Z,18.20
2019-01-25T20:06:02.829Z,17.70
2019-01-25T20:08:32.094Z,20.07
2019-01-25T20:11:01.345Z,18.97
2019-01-25T20:13:31.025Z,19.77
2019-01-25T20:16:00.455Z,19.37
2019-01-25T20:18:30.066Z,18.50
2019-01-25T20:20:59.877Z,18.03
2019-01-25T20:23:29.578Z,19.87
2019-01-25T20:25:58.859Z,20.60
2019-01-25T20:28:28.891Z,21.77
2019-01-25T20:30:58.163Z,20.33
2019-01-25T20:33:27.534Z,22.83
2019-01-25T20:35:56.928Z,23.10
2019-01-25T20:38:26.188Z,21.60
2019-01-25T20:41:14.904Z,20.43
2019-01-25T20:43:44.617Z,22.20
2019-01-25T20:46:14.420Z,19.77
2019-01-25T20:48:43.815Z,20.97
2019-01-25T20:51:13.050Z,21.60
2019-01-25T20:53:42.765Z,20.10
2019-01-25T20:56:31.522Z,21.50
2019-01-25T20:59:01.268Z,22.87
2019-01-25T21:01:30.490Z,23.30
2019-01-25T21:04:00.191Z,23.10
2019-01-25T21:06:29.840Z,24.10
2019-01-25T21:08:59.081Z,23.97
2019-01-25T21:11:28.738Z,21.80
2019-01-25T21:13:59.005Z,23.37
2019-01-25T21:16:28.315Z,20.57
2019-01-25T21:18:58.276Z,21.00
2019-01-25T21:21:28.005Z,21.43
2019-01-25T21:23:58.038Z,22.70
2019-01-25T21:26:27.429Z,24.07
2019-01-25T21:28:56.906Z,21.63
2019-01-25T21:31:27.673Z,23.13
2019-01-25T21:34:00.280Z,21.23
2019-01-25T21:36:30.069Z,23.37
2019-01-25T21:38:59.498Z,22.60
2019-01-25T21:41:29.030Z,21.30
2019-01-25T21:43:59.028Z,22.30
2019-01-25T21:46:47.786Z,21.53
2019-01-25T21:49:36.258Z,22.57
2019-01-25T21:52:05.881Z,22.30
2019-01-25T21:54:54.303Z,20.00
2019-01-25T21:57:24.135Z,20.67
2019-01-25T21:59:53.782Z,22.57
2019-01-25T22:02:23.236Z,21.80
2019-01-25T22:04:52.827Z,23.40
2019-01-25T22:07:22.704Z,23.67
2019-01-25T22:09:52.318Z,22.70
2019-01-25T22:12:22.458Z,20.97
2019-01-25T22:14:52.985Z,19.30
2019-01-25T22:17:22.234Z,19.80
2019-01-25T22:19:51.574Z,22.80
2019-01-25T22:22:21.293Z,20.47
2019-01-25T22:24:50.893Z,20.77
2019-01-25T22:27:20.643Z,21.67
2019-01-25T22:29:50.596Z,20.90
2019-01-25T22:32:20.368Z,21.10
2019-01-25T22:34:51.749Z,21.07
2019-01-25T22:37:21.753Z,18.03
2019-01-25T22:39:51.074Z,18.23
2019-01-25T22:42:20.373Z,16.33
2019-01-25T22:44:50.418Z,17.90
2019-01-25T22:47:20.458Z,18.87
2019-01-25T22:49:50.050Z,20.13
2019-01-25T22:52:20.493Z,18.60
2019-01-25T22:54:50.153Z,18.80
2019-01-25T22:57:20.094Z,22.80
2019-01-25T22:59:49.369Z,19.33
2019-01-25T23:02:18.609Z,17.77
2019-01-25T23:05:02.239Z,19.50
2019-01-25T23:07:33.167Z,19.50
2019-01-25T23:10:07.613Z,22.60
2019-01-25T23:12:36.946Z,19.07
2019-01-25T23:15:07.829Z,19.47
2019-01-25T23:17:37.170Z,19.80
2019-01-25T23:20:08.353Z,17.73
2019-01-25T23:22:37.610Z,19.43
2019-01-25T23:25:08.144Z,20.43
2019-01-25T23:27:37.750Z,18.60
2019-01-25T23:30:10.742Z,18.43
2019-01-25T23:32:40.187Z,18.50
2019-01-25T23:35:09.994Z,16.00
2019-01-25T23:37:39.186Z,18.10
2019-01-25T23:40:13.841Z,16.50
2019-01-25T23:42:43.587Z,18.13
2019-01-25T23:45:13.578Z,19.27
2019-01-25T23:47:42.758Z,18.20
2019-01-25T23:50:12.881Z,18.57
2019-01-25T23:52:42.521Z,19.60
2019-01-25T23:55:11.945Z,18.80
2019-01-25T23:57:41.899Z,17.13
